Time;durP1;ratioP1;P1;durP2;ratioP2;P2;SDS_P1;SDS_P2;PMS_P1;PMS_P2;Temp;Humidity;BMP_temperature;BMP_pressure;BME280_temperature;BME280_humidity;BME280_pressure;Samples;Min_cycle;Max_cycle;Signal;HPM_P1;HPM_P2
2022/06/19 00:00:09;;;;;;;4.57;3.20;;;21.00;99.90;;;;;;5113087;28;20244;-93
2022/06/19 00:02:40;;;;;;;2.67;2.47;;;20.90;99.90;;;;;;5113248;28;20204;-93
2022/06/19 00:05:09;;;;;;;3.95;2.55;;;20.90;99.90;;;;;;5112992;28;20207;-93
2022/06/19 00:07:38;;;;;;;2.88;2.67;;;20.90;99.90;;;;;;5112929;28;20200;-93
2022/06/19 00:10:08;;;;;;;5.95;3.42;;;20.90;99.90;;;;;;5112741;28;20323;-93
2022/06/19 00:12:37;;;;;;;3.15;2.83;;;20.80;99.90;;;;;;5113119;28;20271;-93
2022/06/19 00:15:07;;;;;;;3.30;3.00;;;20.80;99.90;;;;;;5112908;28;20241;-93
2022/06/19 00:17:35;;;;;;;3.95;3.22;;;20.80;99.90;;;;;;5112905;28;20216;-93
2022/06/19 00:20:07;;;;;;;2.97;2.78;;;20.80;99.90;;;;;;5112641;28;20283;-93
2022/06/19 00:22:35;;;;;;;3.45;3.10;;;20.80;99.90;;;;;;5113067;28;20223;-93
2022/06/19 00:25:04;;;;;;;3.28;2.97;;;20.70;99.90;;;;;;5112841;28;20207;-92
2022/06/19 00:27:37;;;;;;;3.20;2.88;;;20.70;99.90;;;;;;5112880;28;20196;-93
2022/06/19 00:30:06;;;;;;;6.75;3.35;;;20.60;99.90;;;;;;5112520;28;20235;-93
2022/06/19 00:32:37;;;;;;;3.58;2.67;;;20.70;99.90;;;;;;5114594;28;20291;-93
2022/06/19 00:35:08;;;;;;;3.88;3.47;;;20.60;99.90;;;;;;5116740;28;20212;-93
2022/06/19 00:37:37;;;;;;;3.13;2.92;;;20.60;99.90;;;;;;5116476;28;20206;-93
2022/06/19 00:40:10;;;;;;;4.00;2.95;;;20.60;99.90;;;;;;5122053;28;20262;-93
2022/06/19 00:42:40;;;;;;;3.50;3.20;;;20.50;99.90;;;;;;5116640;28;20196;-92
2022/06/19 00:45:32;;;;;;;3.50;3.20;;;20.50;99.90;;;;;;5116434;28;20204;-92
2022/06/19 00:48:09;;;;;;;4.15;3.72;;;20.50;99.90;;;;;;5116336;28;20295;-92
2022/06/19 00:50:40;;;;;;;5.57;3.85;;;20.40;99.90;;;;;;5115835;28;20210;-92
2022/06/19 00:53:13;;;;;;;5.28;4.18;;;20.40;99.90;;;;;;5116539;27;20211;-93
2022/06/19 00:55:45;;;;;;;3.35;3.05;;;20.40;99.90;;;;;;5116132;28;20196;-92
2022/06/19 00:58:19;;;;;;;3.50;3.03;;;20.30;99.90;;;;;;5116339;28;20195;-92
2022/06/19 01:00:49;;;;;;;3.30;3.03;;;20.30;99.90;;;;;;5121301;28;20250;-92
2022/06/19 01:03:21;;;;;;;3.67;3.38;;;20.20;99.90;;;;;;5116829;28;20287;-93
2022/06/19 01:05:53;;;;;;;3.10;2.83;;;20.20;99.90;;;;;;5116453;28;20203;-93
2022/06/19 01:08:21;;;;;;;2.75;2.55;;;20.20;99.90;;;;;;5115962;28;20207;-92
2022/06/19 01:10:52;;;;;;;3.25;3.05;;;20.10;99.90;;;;;;5115577;28;20223;-92
2022/06/19 01:13:24;;;;;;;3.10;2.90;;;20.00;99.90;;;;;;5115707;28;20207;-92
2022/06/19 01:15:52;;;;;;;3.78;3.47;;;20.00;99.90;;;;;;5115668;28;20204;-93
2022/06/19 01:18:22;;;;;;;2.85;2.65;;;20.00;99.90;;;;;;5115727;28;20215;-92
2022/06/19 01:20:57;;;;;;;4.43;2.88;;;20.00;99.90;;;;;;5115841;28;20200;-92
2022/06/19 01:23:33;;;;;;;3.28;3.03;;;19.90;99.90;;;;;;5115555;28;20225;-92
2022/06/19 01:26:03;;;;;;;3.25;2.95;;;19.90;99.90;;;;;;5115531;28;20276;-92
2022/06/19 01:28:55;;;;;;;3.75;3.45;;;19.90;99.90;;;;;;5115551;28;20224;-93
2022/06/19 01:31:33;;;;;;;3.60;3.15;;;19.90;99.90;;;;;;5115496;28;20223;-93
2022/06/19 01:34:26;;;;;;;4.18;3.78;;;19.90;99.90;;;;;;5115640;28;20207;-92
2022/06/19 01:36:56;;;;;;;4.20;3.80;;;19.80;99.90;;;;;;5115061;28;20264;-93
2022/06/19 01:39:27;;;;;;;3.47;3.28;;;19.80;99.90;;;;;;5115292;28;20232;-92
2022/06/19 01:41:56;;;;;;;3.65;3.35;;;19.80;99.90;;;;;;5114693;28;20192;-93
2022/06/19 01:44:25;;;;;;;5.25;3.47;;;19.80;99.90;;;;;;5114888;28;20234;-92
2022/06/19 01:46:54;;;;;;;3.83;3.10;;;19.70;99.90;;;;;;5115126;28;20199;-92
2022/06/19 01:49:23;;;;;;;3.65;3.35;;;19.70;99.90;;;;;;5114982;28;20265;-92
2022/06/19 01:51:53;;;;;;;5.63;3.50;;;19.70;99.90;;;;;;5114770;28;20231;-92
2022/06/19 01:54:29;;;;;;;4.20;3.30;;;19.60;99.90;;;;;;5114613;28;20231;-92
2022/06/19 01:56:59;;;;;;;3.67;3.38;;;19.60;99.90;;;;;;5114821;28;20284;-92
2022/06/19 01:59:32;;;;;;;3.15;2.95;;;19.60;99.90;;;;;;5114998;28;20247;-92
2022/06/19 02:02:03;;;;;;;3.65;3.35;;;19.60;99.90;;;;;;5115021;28;20200;-92
2022/06/19 02:04:32;;;;;;;3.97;3.65;;;19.50;99.90;;;;;;5114760;28;20207;-92
2022/06/19 02:07:04;;;;;;;4.18;3.80;;;19.50;99.90;;;;;;5114901;28;20204;-93
2022/06/19 02:09:34;;;;;;;3.67;3.38;;;19.50;99.90;;;;;;5114641;28;20255;-92
2022/06/19 02:12:05;;;;;;;3.47;3.05;;;19.50;99.90;;;;;;5114384;28;20250;-92
2022/06/19 02:14:35;;;;;;;3.78;3.25;;;19.40;99.90;;;;;;5115086;28;20207;-93
2022/06/19 02:17:09;;;;;;;3.53;3.22;;;19.40;99.90;;;;;;5114701;28;20227;-92
2022/06/19 02:19:38;;;;;;;3.28;3.00;;;19.40;99.90;;;;;;5114311;28;20271;-93
2022/06/19 02:22:11;;;;;;;3.40;3.13;;;19.40;99.90;;;;;;5113648;28;20246;-92
2022/06/19 02:24:40;;;;;;;5.47;3.28;;;19.30;99.90;;;;;;5114299;28;20228;-93
2022/06/19 02:27:10;;;;;;;3.53;3.28;;;19.30;99.90;;;;;;5114294;28;20295;-92
2022/06/19 02:29:44;;;;;;;3.65;3.35;;;19.20;99.90;;;;;;5114196;27;20223;-92
2022/06/19 02:32:21;;;;;;;4.30;3.90;;;19.20;99.90;;;;;;5113898;28;20219;-93
2022/06/19 02:34:51;;;;;;;5.05;3.75;;;19.20;99.90;;;;;;5114108;27;20215;-92
2022/06/19 02:37:22;;;;;;;4.70;4.18;;;19.20;99.90;;;;;;5114345;28;20249;-93
2022/06/19 02:39:56;;;;;;;3.90;3.60;;;19.10;99.90;;;;;;5114326;28;20269;-92
2022/06/19 02:42:47;;;;;;;4.55;4.15;;;19.20;99.90;;;;;;5114048;28;20290;-93
2022/06/19 02:45:20;;;;;;;3.95;3.65;;;19.10;99.90;;;;;;5113720;28;20296;-92
2022/06/19 02:47:52;;;;;;;5.95;3.90;;;19.10;99.90;;;;;;5114442;28;20204;-93
2022/06/19 02:50:23;;;;;;;3.88;3.58;;;19.10;99.90;;;;;;5113807;28;20251;-93
2022/06/19 02:52:51;;;;;;;5.72;3.63;;;19.00;99.90;;;;;;5113622;28;20241;-93
2022/06/19 02:55:21;;;;;;;4.43;4.00;;;19.00;99.90;;;;;;5113525;28;20214;-92
2022/06/19 02:57:51;;;;;;;4.20;3.72;;;19.00;99.90;;;;;;5114055;28;20238;-92
2022/06/19 03:00:23;;;;;;;4.85;4.45;;;19.00;99.90;;;;;;5114540;28;20227;-93
2022/06/19 03:02:55;;;;;;;4.85;4.45;;;18.90;99.90;;;;;;5113806;28;20249;-92
2022/06/19 03:05:26;;;;;;;4.30;3.70;;;18.90;99.90;;;;;;5113513;28;20263;-92
2022/06/19 03:07:55;;;;;;;4.60;4.18;;;18.90;99.90;;;;;;5113890;28;20268;-92
2022/06/19 03:10:23;;;;;;;4.60;4.07;;;18.90;99.90;;;;;;5113026;28;20271;-93
2022/06/19 03:12:53;;;;;;;4.18;3.78;;;18.90;99.90;;;;;;5113396;28;20220;-92
2022/06/19 03:15:21;;;;;;;5.03;4.63;;;18.90;99.90;;;;;;5113399;28;20283;-93
2022/06/19 03:17:49;;;;;;;4.50;4.10;;;18.80;99.90;;;;;;5113086;28;20287;-92
2022/06/19 03:20:20;;;;;;;4.53;4.22;;;18.80;99.90;;;;;;5113268;27;20263;-92
2022/06/19 03:22:49;;;;;;;5.80;4.45;;;18.80;99.90;;;;;;5113575;28;20222;-92
2022/06/19 03:25:18;;;;;;;4.43;4.03;;;18.80;99.90;;;;;;5113325;28;20224;-92
2022/06/19 03:27:46;;;;;;;4.15;3.85;;;18.70;99.90;;;;;;5113334;28;20203;-92
2022/06/19 03:30:18;;;;;;;5.47;4.82;;;18.80;99.90;;;;;;5113082;28;20295;-92
2022/06/19 03:32:47;;;;;;;6.07;5.43;;;18.80;99.90;;;;;;5113521;28;20250;-92
2022/06/19 03:35:17;;;;;;;7.57;5.13;;;18.80;99.90;;;;;;5113453;28;20231;-93
2022/06/19 03:37:46;;;;;;;7.15;5.07;;;18.80;99.90;;;;;;5113254;28;20228;-93
2022/06/19 03:40:15;;;;;;;4.97;4.57;;;18.80;99.90;;;;;;5113181;28;20243;-92
2022/06/19 03:42:43;;;;;;;4.93;4.53;;;18.80;99.90;;;;;;5112882;28;20283;-91
2022/06/19 03:45:11;;;;;;;5.03;4.63;;;18.80;99.90;;;;;;5112490;28;20223;-92
2022/06/19 03:47:42;;;;;;;4.75;4.35;;;18.80;99.90;;;;;;5113156;28;20208;-94
2022/06/19 03:50:16;;;;;;;4.90;4.50;;;18.80;99.90;;;;;;5112971;28;20212;-92
2022/06/19 03:52:45;;;;;;;4.82;4.43;;;18.80;99.90;;;;;;5112945;28;20307;-93
2022/06/19 03:55:14;;;;;;;5.55;4.70;;;18.80;99.90;;;;;;5112900;28;20239;-92
2022/06/19 03:57:42;;;;;;;14.80;5.10;;;18.80;99.90;;;;;;5113063;28;20212;-92
2022/06/19 04:00:15;;;;;;;4.30;3.90;;;18.80;99.90;;;;;;5112899;28;20224;-92
2022/06/19 04:02:45;;;;;;;6.40;4.95;;;18.90;99.90;;;;;;5113396;28;20265;-93
2022/06/19 04:05:14;;;;;;;4.78;4.07;;;18.90;99.90;;;;;;5113287;28;20264;-92
2022/06/19 04:07:47;;;;;;;4.25;3.95;;;18.90;99.90;;;;;;5116712;28;20200;-92
2022/06/19 04:10:17;;;;;;;4.30;3.85;;;19.00;99.90;;;;;;5116923;28;20246;-93
2022/06/19 04:12:53;;;;;;;6.03;4.63;;;19.00;99.90;;;;;;5116767;28;20219;-92
2022/06/19 04:15:21;;;;;;;5.18;4.72;;;19.00;99.90;;;;;;5117298;28;20265;-92
2022/06/19 04:17:51;;;;;;;3.97;3.67;;;19.10;99.90;;;;;;5117134;28;20269;-93
2022/06/19 04:20:19;;;;;;;3.97;3.67;;;19.10;99.90;;;;;;5116242;28;20316;-93
2022/06/19 04:22:48;;;;;;;5.20;4.68;;;19.10;99.90;;;;;;5116674;28;20225;-93
2022/06/19 04:25:16;;;;;;;4.30;3.95;;;19.10;99.90;;;;;;5116571;28;20487;-93
2022/06/19 04:27:45;;;;;;;3.88;3.60;;;19.20;99.90;;;;;;5116994;28;20204;-93
2022/06/19 04:30:18;;;;;;;4.13;3.80;;;19.30;99.90;;;;;;5116534;28;20227;-92
2022/06/19 04:32:46;;;;;;;4.00;3.70;;;19.30;99.90;;;;;;5116653;27;20219;-92
2022/06/19 04:35:16;;;;;;;3.95;3.65;;;19.30;99.90;;;;;;5116516;28;20299;-93
2022/06/19 04:37:45;;;;;;;5.10;4.10;;;19.40;99.90;;;;;;5116535;28;20228;-93
2022/06/19 04:40:13;;;;;;;3.33;3.10;;;19.40;99.90;;;;;;5116292;28;20219;-93
2022/06/19 04:42:42;;;;;;;4.82;4.07;;;19.40;99.90;;;;;;5117055;28;20260;-93
2022/06/19 04:45:11;;;;;;;8.23;3.75;;;19.40;99.90;;;;;;5115985;28;20203;-92
2022/06/19 04:47:40;;;;;;;3.67;3.20;;;19.50;99.90;;;;;;5116796;28;20208;-93
2022/06/19 04:50:10;;;;;;;3.90;3.60;;;19.50;99.90;;;;;;5116298;28;20239;-93
2022/06/19 04:52:39;;;;;;;3.30;3.00;;;19.50;99.90;;;;;;5116201;28;20199;-93
2022/06/19 04:55:08;;;;;;;4.30;4.00;;;19.50;99.90;;;;;;5116057;28;20251;-92
2022/06/19 04:57:37;;;;;;;6.07;4.47;;;19.40;99.90;;;;;;5116162;28;20203;-93
2022/06/19 05:00:08;;;;;;;3.58;3.28;;;19.40;99.90;;;;;;5115877;28;20244;-93
2022/06/19 05:02:37;;;;;;;3.88;3.58;;;19.50;99.90;;;;;;5116086;28;20196;-93
2022/06/19 05:05:07;;;;;;;4.82;3.78;;;19.50;99.90;;;;;;5116314;28;20198;-92
2022/06/19 05:07:35;;;;;;;2.92;2.72;;;19.40;99.90;;;;;;5121279;28;20215;-93
2022/06/19 05:10:06;;;;;;;3.35;2.97;;;19.50;99.90;;;;;;5116186;27;20278;-92
2022/06/19 05:12:35;;;;;;;3.40;3.10;;;19.50;99.90;;;;;;5115983;28;20203;-92
2022/06/19 05:15:04;;;;;;;3.22;2.92;;;19.50;99.90;;;;;;5115527;28;20261;-93
2022/06/19 05:17:33;;;;;;;14.10;3.35;;;19.60;99.90;;;;;;5115291;28;20226;-93
2022/06/19 05:20:03;;;;;;;3.05;2.85;;;19.60;99.90;;;;;;5115832;28;20298;-92
2022/06/19 05:22:31;;;;;;;2.90;2.58;;;19.60;99.90;;;;;;5115727;28;20250;-92
2022/06/19 05:25:00;;;;;;;3.50;2.88;;;19.70;99.90;;;;;;5115743;28;20256;-92
2022/06/19 05:27:30;;;;;;;2.28;2.17;;;19.80;99.90;;;;;;5121314;27;20204;-92
2022/06/19 05:29:58;;;;;;;2.45;2.25;;;19.80;99.90;;;;;;5116335;27;20310;-93
2022/06/19 05:32:27;;;;;;;2.90;2.70;;;19.90;99.90;;;;;;5115637;28;20294;-92
2022/06/19 05:34:56;;;;;;;3.05;2.10;;;20.00;99.90;;;;;;5115440;28;20219;-93
2022/06/19 05:37:25;;;;;;;3.22;2.58;;;20.10;99.90;;;;;;5115617;28;20257;-93
2022/06/19 05:39:53;;;;;;;1.88;1.77;;;20.20;99.90;;;;;;5115226;28;20253;-92
2022/06/19 05:42:22;;;;;;;2.67;2.47;;;20.20;99.90;;;;;;5115165;28;20284;-92
2022/06/19 05:44:51;;;;;;;2.50;2.30;;;20.30;99.90;;;;;;5114896;28;20219;-92
2022/06/19 05:47:20;;;;;;;2.70;2.50;;;20.40;99.90;;;;;;5115268;28;20200;-93
2022/06/19 05:49:49;;;;;;;2.30;2.10;;;20.40;99.90;;;;;;5115331;28;20239;-93
2022/06/19 05:52:19;;;;;;;2.30;2.13;;;20.60;99.90;;;;;;5114987;28;20239;-93
2022/06/19 05:54:48;;;;;;;2.20;2.10;;;20.60;99.90;;;;;;5114678;28;20266;-92
2022/06/19 05:57:16;;;;;;;3.20;2.90;;;20.70;99.90;;;;;;5114763;28;20200;-93
2022/06/19 05:59:45;;;;;;;2.63;2.42;;;20.70;99.90;;;;;;5114959;28;20230;-92
2022/06/19 06:02:21;;;;;;;2.35;2.15;;;20.80;99.90;;;;;;5114820;28;20268;-92
2022/06/19 06:04:50;;;;;;;2.08;1.98;;;20.90;99.90;;;;;;5115240;28;20211;-92
2022/06/19 06:07:19;;;;;;;2.30;2.10;;;21.00;99.90;;;;;;5115002;28;20203;-93
2022/06/19 06:09:47;;;;;;;3.25;2.90;;;21.10;99.90;;;;;;5114591;28;20224;-93
2022/06/19 06:12:16;;;;;;;2.40;2.30;;;21.10;99.90;;;;;;5114403;28;20200;-92
2022/06/19 06:14:44;;;;;;;3.00;2.70;;;21.20;99.90;;;;;;5114400;28;20251;-92
2022/06/19 06:17:12;;;;;;;4.47;2.72;;;21.30;99.90;;;;;;5114738;28;20211;-92
2022/06/19 06:19:42;;;;;;;2.95;2.65;;;21.40;99.90;;;;;;5114337;28;20219;-92
2022/06/19 06:22:11;;;;;;;2.50;2.30;;;21.50;99.90;;;;;;5114110;28;20200;-93
2022/06/19 06:24:40;;;;;;;2.97;2.78;;;21.60;99.90;;;;;;5114173;28;20200;-92
2022/06/19 06:27:08;;;;;;;2.40;2.30;;;21.70;99.90;;;;;;5114352;28;20219;-93
2022/06/19 06:29:37;;;;;;;3.42;2.65;;;21.80;99.90;;;;;;5113026;27;20276;-93
2022/06/19 06:32:06;;;;;;;3.08;2.83;;;21.90;99.90;;;;;;5114187;28;20208;-93
2022/06/19 06:34:34;;;;;;;2.63;2.42;;;22.00;99.90;;;;;;5114172;28;20243;-92
2022/06/19 06:37:04;;;;;;;2.30;2.20;;;22.10;99.90;;;;;;5114276;28;20203;-93
2022/06/19 06:39:33;;;;;;;2.53;2.33;;;22.30;99.90;;;;;;5113972;28;20300;-93
2022/06/19 06:42:01;;;;;;;2.25;2.15;;;22.40;99.90;;;;;;5114048;28;20288;-93
2022/06/19 06:44:29;;;;;;;2.30;2.10;;;22.50;99.90;;;;;;5114362;28;20199;-93
2022/06/19 06:46:58;;;;;;;2.90;2.63;;;22.60;99.90;;;;;;5113800;28;20216;-93
2022/06/19 06:49:26;;;;;;;1.88;1.77;;;22.70;99.90;;;;;;5113742;28;20227;-93
2022/06/19 06:51:54;;;;;;;3.35;2.38;;;22.90;99.90;;;;;;5113843;28;20246;-93
2022/06/19 06:54:24;;;;;;;2.40;2.20;;;23.10;99.90;;;;;;5114087;28;20224;-93
2022/06/19 06:56:55;;;;;;;3.45;2.70;;;23.30;99.90;;;;;;5113905;28;20295;-93
2022/06/19 06:59:24;;;;;;;3.60;1.95;;;23.40;99.90;;;;;;5113777;28;20247;-93
2022/06/19 07:01:52;;;;;;;3.80;2.05;;;23.70;99.90;;;;;;5113927;28;20267;-93
2022/06/19 07:04:20;;;;;;;2.65;1.98;;;23.90;99.90;;;;;;5113605;28;20211;-93
2022/06/19 07:06:49;;;;;;;2.17;2.00;;;24.10;99.90;;;;;;5113849;28;20238;-93
2022/06/19 07:09:17;;;;;;;1.80;1.70;;;24.30;99.90;;;;;;5113834;28;20248;-93
2022/06/19 07:11:48;;;;;;;4.30;2.25;;;24.60;99.90;;;;;;5113505;28;20211;-93
2022/06/19 07:14:18;;;;;;;2.70;2.33;;;24.70;99.90;;;;;;5113613;28;20223;-93
2022/06/19 07:16:47;;;;;;;2.70;2.50;;;24.90;99.90;;;;;;5113590;28;20234;-93
2022/06/19 07:19:15;;;;;;;2.20;2.00;;;25.40;99.90;;;;;;5113622;28;20293;-93
2022/06/19 07:21:44;;;;;;;2.10;1.90;;;25.90;99.90;;;;;;5113439;28;20211;-93
2022/06/19 07:24:12;;;;;;;2.17;2.08;;;26.40;99.90;;;;;;5113703;28;20203;-93
2022/06/19 07:26:43;;;;;;;1.98;1.88;;;26.90;99.90;;;;;;5113605;28;20221;-93
2022/06/19 07:29:14;;;;;;;2.42;1.88;;;27.40;99.90;;;;;;5113603;28;20227;-93
2022/06/19 07:31:45;;;;;;;1.70;1.60;;;27.80;99.90;;;;;;5113285;28;20288;-93
2022/06/19 07:34:15;;;;;;;2.20;2.00;;;28.10;99.90;;;;;;5113356;28;20218;-93
2022/06/19 07:36:51;;;;;;;1.83;1.73;;;28.60;98.90;;;;;;5113519;28;20202;-93
2022/06/19 07:39:19;;;;;;;1.80;1.70;;;29.00;97.80;;;;;;5113302;28;20227;-93
2022/06/19 07:41:48;;;;;;;2.20;2.00;;;29.40;96.50;;;;;;5112588;28;20225;-92
2022/06/19 07:44:18;;;;;;;2.78;1.95;;;29.70;95.10;;;;;;5113437;28;20280;-93
2022/06/19 07:52:18;;;;;;;1.80;1.70;;;31.50;91.70;;;;;;5113362;28;20279;-93
2022/06/19 07:54:46;;;;;;;1.70;1.60;;;32.00;90.10;;;;;;5112997;28;20312;-92
2022/06/19 07:57:15;;;;;;;1.70;1.60;;;32.10;84.80;;;;;;5112813;28;20199;-92
2022/06/19 07:59:46;;;;;;;2.88;1.80;;;32.20;82.00;;;;;;5112999;28;20223;-93
2022/06/19 08:02:14;;;;;;;2.25;1.67;;;32.00;80.40;;;;;;5112897;28;20297;-93
2022/06/19 08:04:45;;;;;;;3.03;2.00;;;31.70;79.70;;;;;;5113130;28;20203;-93
2022/06/19 08:07:15;;;;;;;1.65;1.55;;;31.90;78.70;;;;;;5113206;28;20211;-93
2022/06/19 08:09:44;;;;;;;2.85;1.98;;;32.50;77.50;;;;;;5112815;28;20254;-93
2022/06/19 08:12:13;;;;;;;1.40;1.35;;;32.80;74.80;;;;;;5112976;28;20252;-94
2022/06/19 08:14:42;;;;;;;2.10;1.75;;;33.00;73.20;;;;;;5113033;28;20199;-93
2022/06/19 08:17:15;;;;;;;2.55;1.80;;;33.20;73.00;;;;;;5112906;28;20236;-93
2022/06/19 08:19:46;;;;;;;1.83;1.73;;;33.40;71.20;;;;;;5113077;28;20235;-93
2022/06/19 08:22:15;;;;;;;1.98;1.88;;;33.30;70.10;;;;;;5112358;28;20199;-93
2022/06/19 08:24:43;;;;;;;2.55;1.65;;;33.30;69.20;;;;;;5112811;28;20211;-93
2022/06/19 08:27:12;;;;;;;2.03;1.83;;;33.00;68.80;;;;;;5112732;28;20286;-93
2022/06/19 08:29:41;;;;;;;1.55;1.45;;;33.80;67.80;;;;;;5112397;28;20307;-93
2022/06/19 08:32:11;;;;;;;2.97;1.80;;;34.20;66.50;;;;;;5112647;28;20210;-93
2022/06/19 08:34:44;;;;;;;2.28;2.03;;;34.80;65.90;;;;;;5112874;28;20282;-93
2022/06/19 08:37:14;;;;;;;3.67;1.98;;;34.70;63.70;;;;;;5112571;28;20210;-93
2022/06/19 08:39:46;;;;;;;1.67;1.58;;;34.80;62.50;;;;;;5112485;28;20302;-93
2022/06/19 08:42:39;;;;;;;2.22;1.70;;;35.00;62.30;;;;;;5112621;28;20207;-94
2022/06/19 08:45:28;;;;;;;1.80;1.70;;;35.20;60.70;;;;;;5110371;28;20199;-94
2022/06/19 08:48:39;;;;;;;1.90;1.63;;;35.50;59.80;;;;;;5112893;28;20203;-94
2022/06/19 08:51:21;;;;;;;3.10;1.58;;;35.90;59.10;;;;;;5112624;28;20210;-94
2022/06/19 08:54:16;;;;;;;1.95;1.80;;;35.30;58.90;;;;;;5115782;28;20252;-94
2022/06/19 08:56:53;;;;;;;2.10;1.90;;;35.10;59.00;;;;;;5115950;28;20295;-94
2022/06/19 08:59:33;;;;;;;2.95;1.70;;;35.00;59.20;;;;;;5116170;28;20254;-94
2022/06/19 09:02:10;;;;;;;1.67;1.50;;;35.50;58.80;;;;;;5116122;28;20202;-94
2022/06/19 09:07:42;;;;;;;1.90;1.73;;;35.20;58.60;;;;;;5115899;28;20207;-94
2022/06/19 09:10:25;;;;;;;1.70;1.60;;;35.50;58.30;;;;;;5116012;28;20257;-94
2022/06/19 09:13:21;;;;;;;2.53;1.70;;;35.40;58.20;;;;;;5115923;28;20256;-93
2022/06/19 09:15:55;;;;;;;3.42;1.92;;;35.20;58.20;;;;;;5115676;27;20243;-94
2022/06/19 09:18:34;;;;;;;2.63;1.65;;;35.50;58.20;;;;;;5115974;28;20218;-94
2022/06/19 09:21:09;;;;;;;1.65;1.55;;;34.90;58.40;;;;;;5115587;27;20260;-93
2022/06/19 09:24:02;;;;;;;2.88;2.22;;;34.70;58.70;;;;;;5115864;28;20207;-94
2022/06/19 09:26:35;;;;;;;1.77;1.55;;;34.50;58.90;;;;;;5115575;28;20230;-94
2022/06/19 09:29:08;;;;;;;1.95;1.85;;;34.60;58.60;;;;;;5115690;28;20227;-93
2022/06/19 09:31:42;;;;;;;2.20;1.98;;;34.60;59.00;;;;;;5115178;28;20267;-93
2022/06/19 09:34:15;;;;;;;2.13;1.92;;;34.70;59.00;;;;;;5115632;28;20225;-94
2022/06/19 09:36:47;;;;;;;7.57;2.10;;;34.70;59.20;;;;;;5116323;28;20215;-93
2022/06/19 09:39:23;;;;;;;4.72;1.90;;;34.80;57.60;;;;;;5116160;28;20223;-94
2022/06/19 09:41:58;;;;;;;2.22;1.88;;;34.80;58.20;;;;;;5116794;28;20218;-94
2022/06/19 09:44:34;;;;;;;6.00;1.95;;;34.70;58.20;;;;;;5115623;28;20207;-94
2022/06/19 09:47:09;;;;;;;1.80;1.70;;;34.50;59.40;;;;;;5116364;28;20202;-95
2022/06/19 09:49:45;;;;;;;2.35;1.92;;;34.60;58.90;;;;;;5115314;28;20268;-94
2022/06/19 09:52:18;;;;;;;2.90;1.83;;;34.50;58.50;;;;;;5115723;28;20211;-94
2022/06/19 09:54:52;;;;;;;1.80;1.70;;;35.10;58.30;;;;;;5114963;28;20228;-94
2022/06/19 09:57:27;;;;;;;2.17;2.08;;;35.10;57.90;;;;;;5114964;28;20250;-94
2022/06/19 10:00:09;;;;;;;1.98;1.83;;;35.00;59.10;;;;;;5119139;28;20231;-94
2022/06/19 10:02:44;;;;;;;2.75;1.98;;;35.40;57.70;;;;;;5115545;28;20256;-94
2022/06/19 10:05:17;;;;;;;1.60;1.50;;;35.30;57.60;;;;;;5114975;28;20202;-94
2022/06/19 10:07:51;;;;;;;1.95;1.80;;;35.20;57.40;;;;;;5115074;28;20199;-93
2022/06/19 10:10:31;;;;;;;3.10;1.98;;;35.30;58.10;;;;;;5114745;28;20226;-94
2022/06/19 10:13:02;;;;;;;2.10;1.90;;;35.20;58.50;;;;;;5114766;28;20229;-94
2022/06/19 10:15:32;;;;;;;2.15;2.00;;;35.30;57.60;;;;;;5114896;28;20203;-94
2022/06/19 10:18:08;;;;;;;1.77;1.67;;;35.10;57.70;;;;;;5114880;28;20213;-94
2022/06/19 10:20:49;;;;;;;2.67;1.70;;;35.00;58.20;;;;;;5114618;27;20290;-94
2022/06/19 10:23:27;;;;;;;2.60;2.33;;;34.80;59.20;;;;;;5114571;28;20211;-94
2022/06/19 10:26:12;;;;;;;2.63;2.42;;;35.20;59.10;;;;;;5114654;28;20202;-94
2022/06/19 10:29:05;;;;;;;2.38;2.17;;;34.90;58.10;;;;;;5114543;28;20260;-94
2022/06/19 10:31:47;;;;;;;2.05;1.90;;;34.70;59.40;;;;;;5114311;28;20238;-94
2022/06/19 10:34:26;;;;;;;4.03;2.53;;;34.60;59.40;;;;;;5114548;28;20207;-94
2022/06/19 10:37:01;;;;;;;2.35;2.15;;;34.90;58.90;;;;;;5113796;28;20283;-94
2022/06/19 10:39:43;;;;;;;2.30;2.03;;;34.40;58.70;;;;;;5114385;28;20301;-94
2022/06/19 10:42:26;;;;;;;2.65;1.95;;;34.70;59.50;;;;;;5113949;28;20230;-94
2022/06/19 10:45:21;;;;;;;2.20;2.00;;;34.80;58.70;;;;;;5113891;27;20267;-94
2022/06/19 10:48:12;;;;;;;2.70;2.13;;;34.30;59.40;;;;;;5114355;28;20199;-94
2022/06/19 10:50:47;;;;;;;5.82;2.10;;;34.40;59.80;;;;;;5113594;28;20199;-94
2022/06/19 10:53:40;;;;;;;2.08;1.85;;;34.60;59.90;;;;;;5113702;28;20229;-94
2022/06/19 10:56:20;;;;;;;4.65;2.42;;;34.50;59.60;;;;;;5113971;28;20245;-95
2022/06/19 10:58:51;;;;;;;4.75;2.25;;;35.00;59.60;;;;;;5113883;28;20222;-95
2022/06/19 11:04:14;;;;;;;2.60;2.40;;;35.70;58.00;;;;;;5113935;28;20290;-94
2022/06/19 11:06:50;;;;;;;2.45;2.25;;;35.70;57.90;;;;;;5113863;28;20249;-93
2022/06/19 11:09:21;;;;;;;2.03;1.80;;;35.60;58.40;;;;;;5113568;28;20246;-94
2022/06/19 11:11:54;;;;;;;2.15;1.95;;;35.60;58.20;;;;;;5113352;28;20289;-94
2022/06/19 11:14:36;;;;;;;3.30;2.50;;;35.20;58.20;;;;;;5113801;28;20207;-94
2022/06/19 11:17:14;;;;;;;2.08;1.98;;;35.00;58.70;;;;;;5113195;28;20306;-94
2022/06/19 11:19:45;;;;;;;2.25;2.05;;;34.80;59.10;;;;;;5113783;28;20227;-95
2022/06/19 11:22:31;;;;;;;3.00;2.38;;;35.10;59.00;;;;;;5113120;28;20331;-94
2022/06/19 11:25:30;;;;;;;2.10;1.90;;;35.00;58.90;;;;;;5113554;28;20207;-94
2022/06/19 11:28:03;;;;;;;2.17;2.08;;;35.20;59.30;;;;;;5113409;28;20202;-94
2022/06/19 11:30:36;;;;;;;2.08;1.83;;;34.90;58.90;;;;;;5112851;28;20253;-94
2022/06/19 11:33:09;;;;;;;2.72;1.80;;;34.60;59.40;;;;;;5113276;28;20199;-95
2022/06/19 11:35:44;;;;;;;3.15;2.10;;;34.50;59.50;;;;;;5113643;28;20211;-94
2022/06/19 11:38:15;;;;;;;2.38;2.17;;;34.10;59.90;;;;;;5113020;28;20311;-94
2022/06/19 11:40:49;;;;;;;2.63;2.42;;;34.00;59.90;;;;;;5113298;28;20227;-94
2022/06/19 11:43:28;;;;;;;3.03;2.17;;;34.20;59.60;;;;;;5113230;28;20210;-94
2022/06/19 11:46:07;;;;;;;2.47;2.25;;;34.60;59.30;;;;;;5113107;28;20214;-94
2022/06/19 11:48:36;;;;;;;4.30;2.30;;;35.00;59.10;;;;;;5113052;28;20215;-94
2022/06/19 11:51:15;;;;;;;2.10;1.90;;;35.40;58.80;;;;;;5112947;28;20195;-94
2022/06/19 11:53:50;;;;;;;2.58;2.05;;;35.40;57.40;;;;;;5113435;28;20290;-94
2022/06/19 11:56:26;;;;;;;3.80;2.28;;;35.50;57.90;;;;;;5112999;28;20198;-94
2022/06/19 11:58:57;;;;;;;3.85;2.20;;;35.50;57.00;;;;;;5112979;28;20245;-95
2022/06/19 12:01:38;;;;;;;2.97;2.40;;;35.70;56.60;;;;;;5112806;28;20272;-95
2022/06/19 12:04:17;;;;;;;3.33;2.25;;;35.30;56.20;;;;;;5113025;28;20302;-94
2022/06/19 12:06:49;;;;;;;2.08;1.98;;;35.10;57.00;;;;;;5113158;28;20231;-94
2022/06/19 12:09:37;;;;;;;3.30;2.42;;;34.60;56.60;;;;;;5113138;28;20230;-95
2022/06/19 12:12:16;;;;;;;3.75;2.47;;;34.40;57.10;;;;;;5112740;28;20199;-94
2022/06/19 12:14:57;;;;;;;2.42;2.10;;;34.70;56.60;;;;;;5113293;28;20233;-94
2022/06/19 12:17:38;;;;;;;11.25;1.98;;;34.60;57.80;;;;;;5112714;28;20219;-94
2022/06/19 12:20:23;;;;;;;3.22;2.33;;;34.40;57.00;;;;;;5112914;28;20303;-94
2022/06/19 12:23:05;;;;;;;2.30;2.08;;;34.40;57.00;;;;;;5113077;28;20224;-94
2022/06/19 12:25:45;;;;;;;7.93;2.35;;;34.30;57.00;;;;;;5112648;28;20236;-94
2022/06/19 12:28:21;;;;;;;3.10;1.95;;;34.10;56.80;;;;;;5114733;28;20252;-94
2022/06/19 12:30:53;;;;;;;2.00;1.90;;;33.90;58.00;;;;;;5116510;28;20304;-94
2022/06/19 12:33:32;;;;;;;2.13;1.88;;;33.80;58.40;;;;;;5116791;28;20270;-94
2022/06/19 12:36:01;;;;;;;5.72;2.45;;;33.90;58.20;;;;;;5116949;27;20233;-94
2022/06/19 12:38:32;;;;;;;2.45;2.25;;;34.20;58.30;;;;;;5116242;28;20288;-94
2022/06/19 12:41:08;;;;;;;2.92;2.30;;;34.40;58.30;;;;;;5116125;28;20222;-94
2022/06/19 12:43:55;;;;;;;10.63;2.50;;;34.50;57.90;;;;;;5116475;28;20232;-95
2022/06/19 12:46:31;;;;;;;2.42;2.22;;;34.40;58.20;;;;;;5116500;28;20258;-94
2022/06/19 12:49:13;;;;;;;2.45;2.15;;;34.10;58.30;;;;;;5116070;28;20219;-94
2022/06/19 12:51:52;;;;;;;3.13;2.60;;;34.00;58.60;;;;;;5116171;28;20211;-94
2022/06/19 12:55:03;;;;;;;4.43;2.63;;;33.90;58.90;;;;;;5116635;27;20203;-95
2022/06/19 12:57:54;;;;;;;4.65;2.45;;;33.60;58.80;;;;;;5053343;28;20226;-94
2022/06/19 13:00:36;;;;;;;3.20;2.45;;;33.50;59.10;;;;;;5115943;28;20247;-93
2022/06/19 13:03:39;;;;;;;8.77;2.45;;;33.10;60.40;;;;;;5116071;28;20294;-93
2022/06/19 13:06:33;;;;;;;2.88;1.98;;;32.90;60.60;;;;;;5116253;28;20203;-94
2022/06/19 13:09:19;;;;;;;2.70;2.08;;;32.90;60.10;;;;;;5116323;28;20223;-94
2022/06/19 13:11:54;;;;;;;3.67;2.72;;;32.90;60.50;;;;;;5115834;28;20299;-94
2022/06/19 13:14:39;;;;;;;2.45;2.20;;;33.10;60.70;;;;;;5115798;28;20293;-93
2022/06/19 13:17:16;;;;;;;2.28;2.05;;;33.00;60.30;;;;;;5115934;27;20272;-93
2022/06/19 13:19:54;;;;;;;3.30;2.25;;;32.90;60.40;;;;;;5116293;28;20223;-93
2022/06/19 13:22:33;;;;;;;3.03;2.60;;;32.90;60.70;;;;;;5116159;28;20225;-94
2022/06/19 13:25:12;;;;;;;4.97;2.70;;;33.10;60.60;;;;;;5115538;28;20229;-93
2022/06/19 13:27:55;;;;;;;2.42;1.98;;;33.40;59.90;;;;;;5115469;28;20203;-94